Rechercher aéroport 
image banner adimage banner adimage banner ad
image banner ad

CL64 - Washington Hospital Parking Structure Heliport

Situé à Fremont, United States

ICAO - CL64, IATA -

Données fournies par Airmate  

Information générale

Coordonnées: N37°33'27" W121°58'41"
Élévation : 128 feet MSL.
Variation magnétique : 16° East
Voir autres Aéroports à California

Données opérationnelles

Special qualification required
Heure actuelle UTC:
Heure actuelle locale:
Météo à : KPAO - Palo Alto ( 16 km )
METAR: KPAO 262147Z 34013KT 10SM SKC 22/15 A2991
Voir NOTAMs / SUP AIP / TFR affectant cet aéroport [VIEW]
Fréquences de communication: [VIEW]

Pistes:

Coordonnées de l'aéroport

Adresse: Fremont United States

Vue satellite de CL64